Terminal Aerodrome Forecast
Issued by NWS

Home | Current Version | Previous Version | Text Only | Print | Product List | Glossary On
Versions: 1 2 3 4 5 6 7 8 9 10 11 12 13 14 15 16
000
FTPA31 PHFO 210300 AAA
TAFHTO
TAF AMD
PHTO 210300Z 2103/2124 08010KT P6SM FEW025 BKN050
      TEMPO 2103/2106 08010G16KT -SHRA SCT020 BKN030
     FM210600 25005KT P6SM VCSH SCT025 BKN045
     FM212000 03008KT P6SM VCSH SCT025 BKN040=

USA.gov is the U.S. government's official web portal to all federal, state and local government web resources and services.